createdAt,value
2023-05-12T00:00:48.640Z,97944.50
2023-05-12T00:03:16.678Z,97947.29
2023-05-12T00:05:44.719Z,97941.64
2023-05-12T00:08:12.694Z,97941.00
2023-05-12T00:10:41.131Z,97940.02
2023-05-12T00:13:09.676Z,97937.59
2023-05-12T00:15:37.773Z,97936.69
2023-05-12T00:18:05.914Z,97935.88
2023-05-12T00:20:34.014Z,97933.48
2023-05-12T00:23:01.973Z,97931.81
2023-05-12T00:25:29.981Z,97935.41
2023-05-12T00:27:57.980Z,97929.73
2023-05-12T00:30:25.999Z,97931.94
2023-05-12T00:32:54.189Z,97935.79
2023-05-12T00:35:22.515Z,97931.69
2023-05-12T00:37:50.806Z,97930.23
2023-05-12T00:40:19.668Z,97926.20
2023-05-12T00:42:48.027Z,97926.50
2023-05-12T00:45:15.979Z,97924.64
2023-05-12T00:47:46.750Z,97928.00
2023-05-12T00:50:15.429Z,97928.28
2023-05-12T00:52:43.930Z,97929.73
2023-05-12T00:55:12.146Z,97932.34
2023-05-12T00:57:41.182Z,97931.63
2023-05-12T01:00:10.789Z,97932.55
2023-05-12T01:02:40.101Z,97935.18
2023-05-12T01:05:10.018Z,97934.63
2023-05-12T01:07:39.725Z,97931.92
2023-05-12T01:10:20.627Z,97928.71
2023-05-12T01:12:48.910Z,97926.59
2023-05-12T01:15:18.411Z,97929.66
2023-05-12T01:17:57.593Z,97931.23
2023-05-12T01:20:27.220Z,97931.15
2023-05-12T01:22:57.055Z,97931.46
2023-05-12T01:25:31.285Z,97929.98
2023-05-12T01:28:01.405Z,97931.30
2023-05-12T01:30:30.315Z,97930.60
2023-05-12T01:32:58.922Z,97927.73
2023-05-12T01:35:27.051Z,97928.24
2023-05-12T01:38:00.607Z,97929.08
2023-05-12T01:40:28.856Z,97923.20
2023-05-12T01:42:57.944Z,97924.27
2023-05-12T01:45:27.368Z,97921.81
2023-05-12T01:47:55.531Z,97921.77
2023-05-12T01:50:23.608Z,97916.55
2023-05-12T01:52:51.641Z,97916.94
2023-05-12T01:55:20.937Z,97919.10
2023-05-12T01:57:55.302Z,97919.01
2023-05-12T02:00:23.747Z,97917.16
2023-05-12T02:02:52.730Z,97916.70
2023-05-12T02:05:20.789Z,97916.44
2023-05-12T02:07:50.273Z,97913.90
2023-05-12T02:10:18.780Z,97911.98
2023-05-12T02:12:47.073Z,97912.82
2023-05-12T02:15:15.085Z,97912.19
2023-05-12T02:17:46.611Z,97910.36
2023-05-12T02:20:15.303Z,97908.42
2023-05-12T02:22:44.313Z,97908.90
2023-05-12T02:25:12.584Z,97913.55
2023-05-12T02:27:40.874Z,97914.89
2023-05-12T02:30:09.750Z,97914.80
2023-05-12T02:32:38.046Z,97914.56
2023-05-12T02:35:08.485Z,97915.46
2023-05-12T02:37:37.386Z,97922.05
2023-05-12T02:40:06.901Z,97925.82
2023-05-12T02:42:36.296Z,97923.84
2023-05-12T02:45:04.554Z,97928.02
2023-05-12T02:47:33.164Z,97930.71
2023-05-12T02:50:01.412Z,97927.30
2023-05-12T02:52:29.918Z,97929.77
2023-05-12T02:54:57.948Z,97924.67
2023-05-12T02:57:27.510Z,97921.06
2023-05-12T02:59:55.482Z,97925.20
2023-05-12T03:02:23.984Z,97924.15
2023-05-12T03:04:52.280Z,97923.52
2023-05-12T03:07:20.440Z,97924.90
2023-05-12T03:09:48.879Z,97926.07
2023-05-12T03:12:17.543Z,97923.21
2023-05-12T03:14:45.849Z,97922.17
2023-05-12T03:17:14.127Z,97924.76
2023-05-12T03:19:42.802Z,97928.19
2023-05-12T03:22:10.781Z,97932.04
2023-05-12T03:24:39.046Z,97929.74
2023-05-12T03:27:08.161Z,97929.89
2023-05-12T03:29:38.886Z,97931.23
2023-05-12T03:32:07.258Z,97931.58
2023-05-12T03:34:35.566Z,97932.06
2023-05-12T03:37:03.988Z,97933.73
2023-05-12T03:39:31.997Z,97932.71
2023-05-12T03:42:00.059Z,97932.17
2023-05-12T03:44:27.987Z,97929.41
2023-05-12T03:46:58.113Z,97931.88
2023-05-12T03:49:26.583Z,97937.27
2023-05-12T03:51:54.667Z,97937.11
2023-05-12T03:54:23.729Z,97936.71
2023-05-12T03:56:53.887Z,97936.30
2023-05-12T03:59:21.944Z,97941.70
2023-05-12T04:01:53.516Z,97948.70
2023-05-12T04:04:22.166Z,97944.05
2023-05-12T04:06:52.191Z,97945.27
2023-05-12T04:09:21.422Z,97950.88
2023-05-12T04:11:49.426Z,97952.19
2023-05-12T04:14:18.072Z,97952.83
2023-05-12T04:16:46.109Z,97954.21
2023-05-12T04:19:15.306Z,97953.61
2023-05-12T04:21:44.733Z,97955.58
2023-05-12T04:24:12.991Z,97960.05
2023-05-12T04:26:41.009Z,97958.23
2023-05-12T04:29:09.583Z,97959.77
2023-05-12T04:31:39.024Z,97960.75
2023-05-12T04:34:07.832Z,97959.66
2023-05-12T04:36:36.388Z,97958.65
2023-05-12T04:39:05.576Z,97960.52
2023-05-12T04:41:34.685Z,97965.70
2023-05-12T04:44:03.539Z,97965.73
2023-05-12T04:46:31.772Z,97969.76
2023-05-12T04:49:01.002Z,97969.05
2023-05-12T04:51:29.132Z,97969.98
2023-05-12T04:53:57.116Z,97971.70
2023-05-12T04:56:25.288Z,97969.16
2023-05-12T04:58:53.543Z,97971.27
2023-05-12T05:01:21.988Z,97969.08
2023-05-12T05:03:51.031Z,97969.55
2023-05-12T05:06:19.734Z,97971.92
2023-05-12T05:08:49.588Z,97963.89
2023-05-12T05:11:18.845Z,97969.61
2023-05-12T05:13:47.551Z,97967.80
2023-05-12T05:16:16.282Z,97969.15
2023-05-12T05:18:47.732Z,97968.36
2023-05-12T05:21:16.344Z,97970.15
2023-05-12T05:23:45.034Z,97973.61
2023-05-12T05:26:13.275Z,97970.43
2023-05-12T05:28:41.510Z,97972.36
2023-05-12T05:31:16.822Z,97971.63
2023-05-12T05:33:45.082Z,97970.04
2023-05-12T05:36:14.234Z,97974.50
2023-05-12T05:38:42.561Z,97972.81
2023-05-12T05:41:10.724Z,97975.52
2023-05-12T05:43:38.818Z,97977.35
2023-05-12T05:46:09.275Z,97975.48
2023-05-12T05:48:37.628Z,97980.83
2023-05-12T05:51:07.460Z,97980.35
2023-05-12T05:53:35.916Z,97985.64
2023-05-12T05:56:05.761Z,97987.82
2023-05-12T05:58:37.625Z,97989.85
2023-05-12T06:01:05.967Z,97991.27
2023-05-12T06:03:34.240Z,97994.17
2023-05-12T06:06:03.063Z,97994.42
2023-05-12T06:08:32.571Z,97996.80
2023-05-12T06:11:01.881Z,97995.02
2023-05-12T06:13:30.651Z,97996.32
2023-05-12T06:15:58.911Z,97996.63
2023-05-12T06:18:27.732Z,98000.25
2023-05-12T06:20:56.886Z,98002.27
2023-05-12T06:23:25.731Z,98002.30
2023-05-12T06:25:53.955Z,98003.27
2023-05-12T06:28:22.047Z,98003.67
2023-05-12T06:30:51.490Z,98005.07
2023-05-12T06:33:21.653Z,98008.15
2023-05-12T06:35:50.359Z,98006.61
2023-05-12T06:38:19.689Z,98007.20
2023-05-12T06:40:48.008Z,98006.09
2023-05-12T06:43:16.984Z,98006.63
2023-05-12T06:45:46.658Z,98008.70
2023-05-12T06:48:15.208Z,98004.95
2023-05-12T06:50:47.268Z,98004.55
2023-05-12T06:53:16.477Z,98007.36
2023-05-12T06:55:46.417Z,98004.67
2023-05-12T06:58:15.556Z,98005.90
2023-05-12T07:00:44.431Z,98006.97
2023-05-12T07:03:12.785Z,98001.27
2023-05-12T07:05:41.376Z,98003.00
2023-05-12T07:08:10.671Z,97998.66
2023-05-12T07:10:40.570Z,98003.08
2023-05-12T07:13:10.080Z,98006.13
2023-05-12T07:15:38.172Z,98008.64
2023-05-12T07:18:06.707Z,98009.81
2023-05-12T07:20:35.715Z,98011.16
2023-05-12T07:23:07.235Z,98011.48
2023-05-12T07:25:36.094Z,98010.70
2023-05-12T07:28:14.425Z,98008.35
2023-05-12T07:30:42.391Z,98004.01
2023-05-12T07:33:10.932Z,98002.81
2023-05-12T07:35:39.798Z,97998.89
2023-05-12T07:38:11.911Z,97995.57
2023-05-12T07:40:40.678Z,97998.77
2023-05-12T07:43:09.094Z,98000.00
2023-05-12T07:45:38.285Z,97998.08
2023-05-12T07:48:06.774Z,97999.84
2023-05-12T07:50:35.080Z,97998.40
2023-05-12T07:53:04.455Z,97997.97
2023-05-12T07:55:37.158Z,97995.96
2023-05-12T07:58:06.130Z,97990.59
2023-05-12T08:00:35.249Z,97992.88
2023-05-12T08:03:05.012Z,97996.06
2023-05-12T08:05:35.510Z,97993.08
2023-05-12T08:08:03.981Z,97995.20
2023-05-12T08:10:33.291Z,97991.78
2023-05-12T08:13:01.464Z,97990.56
2023-05-12T08:15:29.590Z,97995.02
2023-05-12T08:17:58.140Z,97997.05
2023-05-12T08:20:26.792Z,97999.59
2023-05-12T08:22:55.706Z,98002.05
2023-05-12T08:25:23.983Z,98003.87
2023-05-12T08:27:52.182Z,98007.67
2023-05-12T08:30:21.092Z,98005.85
2023-05-12T08:32:49.342Z,98004.09
2023-05-12T08:35:20.816Z,98009.00
2023-05-12T08:37:49.279Z,98010.50
2023-05-12T08:40:56.303Z,98010.33
2023-05-12T08:43:32.643Z,98008.64
2023-05-12T08:46:02.788Z,98012.21
2023-05-12T08:48:35.428Z,98012.35
2023-05-12T08:51:06.761Z,98013.55
2023-05-12T08:53:37.075Z,98013.03
2023-05-12T08:58:45.100Z,98012.33
2023-05-12T09:01:15.456Z,98013.05
2023-05-12T09:03:43.858Z,98016.07
2023-05-12T09:06:17.074Z,98014.81
2023-05-12T09:08:54.746Z,98017.23
2023-05-12T09:11:27.502Z,98015.27
2023-05-12T09:14:03.488Z,98011.77
2023-05-12T09:16:41.496Z,98014.62
2023-05-12T09:19:12.259Z,98021.43
2023-05-12T09:21:42.541Z,98018.54
2023-05-12T09:24:12.873Z,98019.64
2023-05-12T09:26:53.856Z,98016.50
2023-05-12T09:29:31.468Z,98017.27
2023-05-12T09:32:03.270Z,98023.92
2023-05-12T09:34:35.714Z,98029.89
2023-05-12T09:37:06.962Z,98031.46
2023-05-12T09:39:36.507Z,98029.42
2023-05-12T09:42:11.312Z,98029.34
2023-05-12T09:44:40.246Z,98030.64
2023-05-12T09:47:10.376Z,98038.53
2023-05-12T09:49:47.944Z,98046.95
2023-05-12T09:52:16.848Z,98046.77
2023-05-12T09:54:45.895Z,98054.48
2023-05-12T09:57:17.219Z,98048.27
2023-05-12T09:59:47.659Z,98043.86
2023-05-12T10:02:17.123Z,98042.05
2023-05-12T10:04:53.467Z,98043.90
2023-05-12T10:07:28.479Z,98041.59
2023-05-12T10:10:01.434Z,98039.20
2023-05-12T10:12:30.824Z,98044.38
2023-05-12T10:15:00.499Z,98040.48
2023-05-12T10:17:30.099Z,98042.39
2023-05-12T10:19:58.640Z,98045.14
2023-05-12T10:22:30.720Z,98048.91
2023-05-12T10:25:00.013Z,98051.11
2023-05-12T10:27:29.749Z,98052.09
2023-05-12T10:30:01.521Z,98060.11
2023-05-12T10:32:29.742Z,98061.45
2023-05-12T10:35:13.062Z,98065.88
2023-05-12T10:37:43.558Z,98066.61
2023-05-12T10:40:23.745Z,98072.25
2023-05-12T10:42:56.115Z,98080.91
2023-05-12T10:45:24.858Z,98083.76
2023-05-12T10:48:09.238Z,98085.87
2023-05-12T10:50:37.805Z,98088.16
2023-05-12T10:53:06.147Z,98088.97
2023-05-12T10:55:42.262Z,98086.15
2023-05-12T10:58:12.501Z,98087.40
2023-05-12T11:00:46.800Z,98091.39
2023-05-12T11:03:22.149Z,98094.09
2023-05-12T11:06:04.772Z,98095.17
2023-05-12T11:08:35.797Z,98093.41
2023-05-12T11:11:05.673Z,98101.77
2023-05-12T11:13:36.432Z,98103.92
2023-05-12T11:16:05.814Z,98107.09
2023-05-12T11:18:34.876Z,98112.58
2023-05-12T11:21:10.106Z,98112.77
2023-05-12T11:23:38.426Z,98116.66
2023-05-12T11:26:07.720Z,98113.27
2023-05-12T11:28:41.770Z,98114.66
2023-05-12T11:31:19.436Z,98118.99
2023-05-12T11:33:51.852Z,98118.83
2023-05-12T11:36:30.621Z,98123.85
2023-05-12T11:38:59.591Z,98127.32
2023-05-12T11:41:28.732Z,98125.83
2023-05-12T11:43:57.660Z,98127.95
2023-05-12T11:46:30.383Z,98128.10
2023-05-12T11:49:00.386Z,98127.55
2023-05-12T11:51:29.635Z,98127.95
2023-05-12T11:53:58.849Z,98125.86
2023-05-12T11:56:27.680Z,98126.81
2023-05-12T11:58:58.082Z,98134.58
2023-05-12T12:01:26.781Z,98139.39
2023-05-12T12:03:55.950Z,98139.16
2023-05-12T12:06:24.599Z,98144.59
2023-05-12T12:09:00.241Z,98147.64
2023-05-12T12:11:32.520Z,98146.71
2023-05-12T12:14:02.498Z,98149.95
2023-05-12T12:16:32.424Z,98153.00
2023-05-12T12:19:02.440Z,98151.09
2023-05-12T12:21:33.895Z,98144.95
2023-05-12T12:24:02.297Z,98151.19
2023-05-12T12:26:31.078Z,98149.38
2023-05-12T12:28:59.537Z,98149.35
2023-05-12T12:31:28.015Z,98150.48
2023-05-12T12:34:00.077Z,98145.95
2023-05-12T12:36:28.452Z,98144.79
2023-05-12T12:38:57.422Z,98141.69
2023-05-12T12:41:26.036Z,98142.14
2023-05-12T12:43:57.791Z,98139.80
2023-05-12T12:46:26.630Z,98141.80
2023-05-12T12:48:59.191Z,98139.22
2023-05-12T12:51:42.118Z,98139.52
2023-05-12T12:54:14.111Z,98140.83
2023-05-12T12:56:44.957Z,98141.59
2023-05-12T12:59:13.371Z,98141.82
2023-05-12T13:01:41.870Z,98139.99
2023-05-12T13:04:12.788Z,98140.02
2023-05-12T13:06:43.236Z,98139.36
2023-05-12T13:09:11.592Z,98142.20
2023-05-12T13:11:41.312Z,98139.20
2023-05-12T13:14:13.100Z,98139.80
2023-05-12T13:16:42.603Z,98137.81
2023-05-12T13:19:14.518Z,98133.89
2023-05-12T13:21:42.987Z,98140.46
2023-05-12T13:24:15.002Z,98144.98
2023-05-12T13:27:21.791Z,98146.67
2023-05-12T13:29:50.495Z,98146.38
2023-05-12T13:32:20.767Z,98142.63
2023-05-12T13:34:49.034Z,98138.02
2023-05-12T13:37:19.545Z,98134.68
2023-05-12T13:39:47.881Z,98137.98
2023-05-12T13:42:17.660Z,98136.09
2023-05-12T13:44:46.893Z,98141.16
2023-05-12T13:47:49.392Z,98142.33
2023-05-12T13:50:22.364Z,98141.92
2023-05-12T13:52:53.484Z,98138.13
2023-05-12T13:55:22.974Z,98138.48
2023-05-12T13:57:51.999Z,98139.63
2023-05-12T14:00:24.666Z,98139.05
2023-05-12T14:02:53.115Z,98137.99
2023-05-12T14:05:21.653Z,98141.36
2023-05-12T14:07:52.055Z,98143.27
2023-05-12T14:10:20.356Z,98149.05
2023-05-12T14:12:48.610Z,98148.77
2023-05-12T14:17:49.646Z,98150.39
2023-05-12T14:20:18.338Z,98153.29
2023-05-12T14:22:47.127Z,98149.02
2023-05-12T14:25:16.374Z,98146.66
2023-05-12T14:27:45.443Z,98145.32
2023-05-12T14:30:14.055Z,98145.28
2023-05-12T14:32:42.561Z,98151.83
2023-05-12T14:35:11.949Z,98153.70
2023-05-12T14:37:42.670Z,98154.49
2023-05-12T14:40:12.435Z,98147.07
2023-05-12T14:42:40.619Z,98147.84
2023-05-12T14:45:09.412Z,98147.58
2023-05-12T14:47:37.988Z,98148.85
2023-05-12T14:50:07.471Z,98145.61
2023-05-12T14:52:39.577Z,98145.27
2023-05-12T14:55:12.472Z,98147.11
2023-05-12T14:57:44.758Z,98145.68
2023-05-12T15:00:16.121Z,98149.27
2023-05-12T15:02:45.688Z,98152.04
2023-05-12T15:05:14.559Z,98146.90
2023-05-12T15:07:45.017Z,98147.52
2023-05-12T15:10:15.747Z,98143.47
2023-05-12T15:12:43.762Z,98140.32
2023-05-12T15:15:12.366Z,98139.02
2023-05-12T15:17:40.930Z,98139.18
2023-05-12T15:20:10.227Z,98143.14
2023-05-12T15:22:40.511Z,98140.59
2023-05-12T15:25:09.494Z,98139.35
2023-05-12T15:27:40.358Z,98141.60
2023-05-12T15:30:09.024Z,98142.63
2023-05-12T15:32:40.658Z,98139.94
2023-05-12T15:35:10.058Z,98138.63
2023-05-12T15:37:39.198Z,98138.59
2023-05-12T15:40:10.321Z,98139.69
2023-05-12T15:42:39.961Z,98136.25
2023-05-12T15:45:09.654Z,98135.58
2023-05-12T15:47:37.938Z,98128.95
2023-05-12T15:50:07.226Z,98127.44
2023-05-12T15:52:35.732Z,98129.23
2023-05-12T15:55:03.958Z,98129.02
2023-05-12T15:57:33.438Z,98127.97
2023-05-12T16:00:02.315Z,98126.86
2023-05-12T16:02:41.251Z,98128.67
2023-05-12T16:05:10.462Z,98130.96
2023-05-12T16:07:39.279Z,98134.19
2023-05-12T16:10:09.713Z,98135.73
2023-05-12T16:12:37.764Z,98136.33
2023-05-12T16:15:06.242Z,98140.27
2023-05-12T16:17:34.297Z,98142.85
2023-05-12T16:20:02.649Z,98142.77
2023-05-12T16:22:31.201Z,98148.89
2023-05-12T16:24:59.432Z,98148.89
2023-05-12T16:27:27.498Z,98148.13
2023-05-12T16:29:55.611Z,98145.61
2023-05-12T16:32:26.332Z,98145.13
2023-05-12T16:34:54.494Z,98149.89
2023-05-12T16:37:43.896Z,98145.06
2023-05-12T16:40:13.018Z,98156.19
2023-05-12T16:42:41.890Z,98154.14
2023-05-12T16:45:11.327Z,98154.24
2023-05-12T16:47:42.048Z,98156.66
2023-05-12T16:50:10.520Z,98160.68
2023-05-12T16:52:38.840Z,98161.98
2023-05-12T16:55:07.380Z,98160.21
2023-05-12T16:57:36.797Z,98167.98
2023-05-12T17:00:09.613Z,98164.52
2023-05-12T17:02:39.168Z,98166.13
2023-05-12T17:05:08.032Z,98162.92
2023-05-12T17:07:36.222Z,98166.58
2023-05-12T17:10:04.625Z,98169.63
2023-05-12T17:12:32.799Z,98170.85
2023-05-12T17:15:07.661Z,98170.08
2023-05-12T17:17:42.519Z,98171.73
2023-05-12T17:20:12.041Z,98175.05
2023-05-12T17:22:46.908Z,98178.52
2023-05-12T17:25:15.781Z,98176.52
2023-05-12T17:27:45.209Z,98174.08
2023-05-12T17:30:13.862Z,98175.91
2023-05-12T17:32:44.927Z,98179.95
2023-05-12T17:35:14.223Z,98181.91
2023-05-12T17:37:42.587Z,98188.05
2023-05-12T17:40:16.388Z,98186.56
2023-05-12T17:42:45.299Z,98182.82
2023-05-12T17:45:16.328Z,98177.54
2023-05-12T17:47:45.646Z,98180.33
2023-05-12T17:50:15.279Z,98180.09
2023-05-12T17:52:43.754Z,98183.89
2023-05-12T17:55:12.502Z,98184.71
2023-05-12T17:57:42.111Z,98186.53
2023-05-12T18:00:11.101Z,98186.42
2023-05-12T18:02:45.787Z,98180.45
2023-05-12T18:05:14.214Z,98185.48
2023-05-12T18:07:42.332Z,98189.19
2023-05-12T18:10:12.273Z,98189.19
2023-05-12T18:12:40.462Z,98185.05
2023-05-12T18:15:09.129Z,98185.96
2023-05-12T18:17:37.470Z,98186.75
2023-05-12T18:20:06.739Z,98183.88
2023-05-12T18:22:35.615Z,98184.00
2023-05-12T18:25:04.032Z,98185.59
2023-05-12T18:27:32.121Z,98184.90
2023-05-12T18:30:01.519Z,98188.78
2023-05-12T18:32:31.087Z,98186.44
2023-05-12T18:34:59.835Z,98184.63
2023-05-12T18:37:28.363Z,98179.52
2023-05-12T18:39:58.426Z,98177.67
2023-05-12T18:42:26.596Z,98176.30
2023-05-12T18:44:55.204Z,98177.47
2023-05-12T18:47:23.396Z,98178.73
2023-05-12T18:49:51.356Z,98178.35
2023-05-12T18:52:20.933Z,98178.77
2023-05-12T18:54:50.223Z,98181.88
2023-05-12T18:57:19.632Z,98179.61
2023-05-12T18:59:48.139Z,98179.08
2023-05-12T19:02:17.458Z,98180.42
2023-05-12T19:04:45.544Z,98182.64
2023-05-12T19:07:15.610Z,98181.67
2023-05-12T19:09:44.366Z,98179.02
2023-05-12T19:12:12.535Z,98179.88
2023-05-12T19:14:40.897Z,98179.45
2023-05-12T19:17:08.947Z,98176.16
2023-05-12T19:19:39.833Z,98178.18
2023-05-12T19:22:07.872Z,98178.16
2023-05-12T19:24:38.059Z,98175.06
2023-05-12T19:27:06.336Z,98175.12
2023-05-12T19:29:36.496Z,98175.28
2023-05-12T19:32:05.635Z,98176.09
2023-05-12T19:34:36.382Z,98176.57
2023-05-12T19:37:06.592Z,98175.55
2023-05-12T19:39:34.873Z,98170.00
2023-05-12T19:42:03.004Z,98171.66
2023-05-12T19:44:31.481Z,98170.69
2023-05-12T19:47:04.980Z,98175.14
2023-05-12T19:49:36.156Z,98175.08
2023-05-12T19:52:06.087Z,98172.25
2023-05-12T19:54:34.341Z,98169.78
2023-05-12T19:57:02.540Z,98171.23
2023-05-12T19:59:31.152Z,98168.34
2023-05-12T20:01:59.245Z,98167.71
2023-05-12T20:04:30.347Z,98167.05
2023-05-12T20:06:58.548Z,98165.64
2023-05-12T20:09:27.088Z,98162.45
2023-05-12T20:11:55.074Z,98160.85
2023-05-12T20:14:23.139Z,98162.65
2023-05-12T20:16:51.394Z,98161.48
2023-05-12T20:19:19.518Z,98161.58
2023-05-12T20:21:47.605Z,98157.38
2023-05-12T20:24:15.701Z,98157.14
2023-05-12T20:26:43.763Z,98151.38
2023-05-12T20:29:12.093Z,98155.22
2023-05-12T20:31:40.085Z,98154.38
2023-05-12T20:34:08.056Z,98152.79
2023-05-12T20:36:36.181Z,98149.16
2023-05-12T20:39:04.837Z,98152.66
2023-05-12T20:41:32.868Z,98151.13
2023-05-12T20:44:00.958Z,98148.63
2023-05-12T20:46:30.837Z,98150.38
2023-05-12T20:48:59.473Z,98149.39
2023-05-12T20:51:30.006Z,98150.45
2023-05-12T20:54:01.114Z,98150.24
2023-05-12T20:56:29.242Z,98154.14
2023-05-12T20:58:57.688Z,98152.75
2023-05-12T21:01:26.321Z,98153.95
2023-05-12T21:03:54.642Z,98154.42
2023-05-12T21:06:22.865Z,98155.13
2023-05-12T21:08:50.959Z,98156.17
2023-05-12T21:11:19.519Z,98155.65
2023-05-12T21:13:48.339Z,98150.20
2023-05-12T21:16:16.741Z,98154.16
2023-05-12T21:18:45.092Z,98155.59
2023-05-12T21:21:13.282Z,98158.13
2023-05-12T21:23:41.341Z,98158.79
2023-05-12T21:26:10.618Z,98159.33
2023-05-12T21:28:38.661Z,98157.69
2023-05-12T21:31:06.819Z,98159.63
2023-05-12T21:33:34.954Z,98160.48
2023-05-12T21:36:03.505Z,98160.20
2023-05-12T21:38:32.949Z,98157.66
2023-05-12T21:41:01.032Z,98154.16
2023-05-12T21:43:29.220Z,98154.86
2023-05-12T21:46:02.046Z,98160.55
2023-05-12T21:48:30.274Z,98159.08
2023-05-12T21:51:02.802Z,98158.21
2023-05-12T21:53:31.249Z,98158.17
2023-05-12T21:55:59.390Z,98159.14
2023-05-12T21:58:28.357Z,98159.64
2023-05-12T22:00:57.052Z,98162.69
2023-05-12T22:03:26.059Z,98164.36
2023-05-12T22:05:54.182Z,98162.42
2023-05-12T22:08:22.244Z,98165.88
2023-05-12T22:10:50.344Z,98167.60
2023-05-12T22:13:19.204Z,98166.63
2023-05-12T22:15:47.336Z,98164.82
2023-05-12T22:18:15.417Z,98163.66
2023-05-12T22:20:43.797Z,98166.54
2023-05-12T22:23:11.832Z,98170.92
2023-05-12T22:25:40.022Z,98170.52
2023-05-12T22:28:08.050Z,98168.45
2023-05-12T22:30:36.514Z,98168.70
2023-05-12T22:33:04.595Z,98169.95
2023-05-12T22:35:33.111Z,98174.56
2023-05-12T22:38:01.271Z,98176.38
2023-05-12T22:40:29.633Z,98178.16
2023-05-12T22:42:57.965Z,98179.56
2023-05-12T22:45:26.112Z,98184.67
2023-05-12T22:47:54.388Z,98189.63
2023-05-12T22:50:23.000Z,98187.05
2023-05-12T22:52:57.000Z,98189.54
2023-05-12T22:55:27.437Z,98193.59
2023-05-12T22:57:56.796Z,98194.94
2023-05-12T23:00:24.823Z,98191.38
2023-05-12T23:02:53.628Z,98187.95
2023-05-12T23:05:22.058Z,98186.86
2023-05-12T23:07:50.858Z,98188.13
2023-05-12T23:10:19.054Z,98189.81
2023-05-12T23:12:47.308Z,98188.70
2023-05-12T23:15:15.994Z,98190.34
2023-05-12T23:17:44.048Z,98188.11
2023-05-12T23:20:12.494Z,98187.89
2023-05-12T23:22:40.409Z,98189.02
2023-05-12T23:25:09.482Z,98191.34
2023-05-12T23:27:37.865Z,98192.70
2023-05-12T23:30:06.711Z,98189.59
2023-05-12T23:32:35.148Z,98189.53
2023-05-12T23:35:04.114Z,98185.44
2023-05-12T23:37:32.390Z,98183.55
2023-05-12T23:40:00.351Z,98189.41
2023-05-12T23:42:28.363Z,98185.58
2023-05-12T23:44:57.155Z,98187.16
2023-05-12T23:47:25.292Z,98185.75
2023-05-12T23:49:53.455Z,98186.23
2023-05-12T23:52:21.425Z,98186.43
2023-05-12T23:54:49.482Z,98187.02
2023-05-12T23:57:17.464Z,98184.88
2023-05-12T23:59:45.581Z,98184.78
